createdAt,value
2022-10-19T00:03:37.100Z,16.08
2022-10-19T00:08:44.937Z,14.68
2022-10-19T00:14:04.103Z,16.88
2022-10-19T00:19:14.201Z,20.67
2022-10-19T00:24:28.580Z,18.35
2022-10-19T00:29:33.122Z,13.75
2022-10-19T00:34:36.591Z,13.18
2022-10-19T00:39:43.606Z,17.00
2022-10-19T00:44:57.374Z,24.75
2022-10-19T00:50:00.541Z,25.27
2022-10-19T00:55:04.071Z,25.27
2022-10-19T01:00:09.399Z,22.25
2022-10-19T01:05:13.448Z,21.20
2022-10-19T01:10:17.222Z,19.67
2022-10-19T01:15:48.427Z,22.77
2022-10-19T01:21:03.318Z,27.80
2022-10-19T01:26:27.433Z,24.15
2022-10-19T01:32:08.531Z,16.42
2022-10-19T01:37:37.979Z,25.90
2022-10-19T01:43:12.812Z,15.18
2022-10-19T01:48:41.508Z,21.90
2022-10-19T01:53:51.190Z,19.02
2022-10-19T01:58:59.165Z,23.13
2022-10-19T02:04:05.910Z,18.38
2022-10-19T02:09:18.215Z,20.35
2022-10-19T02:14:27.433Z,19.30
2022-10-19T02:24:35.738Z,17.27
2022-10-19T02:29:39.857Z,13.75
2022-10-19T02:34:42.581Z,16.48
2022-10-19T02:39:45.097Z,15.45
2022-10-19T02:45:18.239Z,13.50
2022-10-19T02:50:25.800Z,17.58
2022-10-19T02:55:30.146Z,21.83
2022-10-19T03:00:32.668Z,21.70
2022-10-19T03:05:35.341Z,21.63
2022-10-19T03:10:37.573Z,22.58
2022-10-19T03:15:39.832Z,18.42
2022-10-19T03:20:42.373Z,19.52
2022-10-19T03:25:47.366Z,19.65
2022-10-19T03:30:56.344Z,22.65
2022-10-19T03:36:20.813Z,21.92
2022-10-19T03:41:27.435Z,20.15
2022-10-19T03:46:32.455Z,14.23
2022-10-19T03:51:36.053Z,20.05
2022-10-19T03:56:38.470Z,29.20
2022-10-19T04:01:43.611Z,17.55
2022-10-19T04:06:48.420Z,16.23
2022-10-19T04:11:53.306Z,24.17
2022-10-19T04:16:57.468Z,21.15
2022-10-19T04:22:07.252Z,16.42
2022-10-19T04:27:32.070Z,15.38
2022-10-19T04:38:00.992Z,12.43
2022-10-19T04:43:09.225Z,24.27
2022-10-19T04:48:15.764Z,24.15
2022-10-19T04:53:19.488Z,24.10
2022-10-19T04:58:25.163Z,17.92
2022-10-19T05:03:27.319Z,18.08
2022-10-19T05:08:32.219Z,16.60
2022-10-19T05:13:44.273Z,14.57
2022-10-19T05:18:59.055Z,18.40
2022-10-19T05:24:05.520Z,16.58
2022-10-19T05:29:33.078Z,15.63
2022-10-19T05:34:35.824Z,13.30
2022-10-19T05:40:26.102Z,27.05
2022-10-19T05:45:43.395Z,17.35
2022-10-19T05:51:08.034Z,19.08
2022-10-19T06:02:09.491Z,15.75
2022-10-19T06:07:28.510Z,15.38
2022-10-19T06:12:35.764Z,17.63
2022-10-19T06:17:39.474Z,24.20
2022-10-19T06:22:50.260Z,25.83
2022-10-19T06:33:40.949Z,15.27
2022-10-19T06:39:08.863Z,16.33
2022-10-19T06:44:13.385Z,21.17
2022-10-19T06:49:21.157Z,14.68
2022-10-19T06:54:35.378Z,13.65
2022-10-19T07:05:59.441Z,20.23
2022-10-19T07:24:21.463Z,19.15
2022-10-19T07:29:45.996Z,13.07
2022-10-19T07:36:00.058Z,17.65
2022-10-19T07:54:31.931Z,15.70
2022-10-19T08:13:31.231Z,12.88
2022-10-19T08:18:37.095Z,9.50
2022-10-19T08:23:50.805Z,12.65
2022-10-19T08:29:12.849Z,16.35
2022-10-19T08:34:16.847Z,6.45
2022-10-19T08:39:54.677Z,14.32
2022-10-19T08:50:48.932Z,11.15
2022-10-19T08:56:57.789Z,11.73
2022-10-19T09:02:44.278Z,14.57
2022-10-19T09:08:20.351Z,9.60
2022-10-19T09:14:06.379Z,9.63
2022-10-19T09:19:43.025Z,15.27
2022-10-19T09:25:08.452Z,14.80
2022-10-19T09:30:32.966Z,10.15
2022-10-19T09:35:57.444Z,16.52
2022-10-19T09:41:33.678Z,11.40
2022-10-19T09:47:18.566Z,13.25
2022-10-19T09:58:39.575Z,16.75
2022-10-19T10:04:24.864Z,17.92
2022-10-19T10:10:25.529Z,15.52
2022-10-19T10:15:56.481Z,15.23
2022-10-19T10:21:28.834Z,13.25
2022-10-19T10:26:49.988Z,18.77
2022-10-19T10:32:19.794Z,15.07
2022-10-19T10:37:29.746Z,14.70
2022-10-19T10:42:45.788Z,7.20
2022-10-19T10:47:53.346Z,11.32
2022-10-19T10:53:39.939Z,17.45
2022-10-19T10:59:00.865Z,6.72
2022-10-19T11:04:19.661Z,21.92
2022-10-19T11:09:31.366Z,10.20
2022-10-19T11:14:42.225Z,11.10
2022-10-19T11:20:01.680Z,9.95
2022-10-19T11:26:01.397Z,16.27
2022-10-19T11:31:38.873Z,12.05
2022-10-19T11:37:28.780Z,11.38
2022-10-19T11:42:56.312Z,15.80
2022-10-19T11:48:54.963Z,15.68
2022-10-19T11:54:41.768Z,18.52
2022-10-19T12:29:12.027Z,13.57
2022-10-19T12:51:50.296Z,9.32
2022-10-19T13:03:15.422Z,9.30
2022-10-19T13:08:52.525Z,10.25
2022-10-19T13:14:28.827Z,13.98
2022-10-19T13:25:48.747Z,19.15
2022-10-19T13:38:03.913Z,21.25
2022-10-19T13:44:43.684Z,22.08
2022-10-19T14:10:01.029Z,15.50
2022-10-19T14:16:08.684Z,22.13
2022-10-19T14:22:30.358Z,15.20
2022-10-19T14:28:25.231Z,13.50
2022-10-19T14:33:36.651Z,28.13
2022-10-19T14:38:53.190Z,32.90
2022-10-19T14:45:14.487Z,25.55
2022-10-19T14:50:30.711Z,19.60
2022-10-19T15:07:40.032Z,22.90
2022-10-19T15:13:11.502Z,22.05
2022-10-19T15:18:44.067Z,17.52
2022-10-19T15:30:22.422Z,29.02
2022-10-19T15:35:34.364Z,23.67
2022-10-19T15:40:47.260Z,21.70
2022-10-19T15:46:44.085Z,18.95
2022-10-19T15:53:03.960Z,12.27
2022-10-19T15:58:15.857Z,24.00
2022-10-19T16:03:30.702Z,21.55
2022-10-19T16:08:44.751Z,14.48
2022-10-19T16:19:37.876Z,18.80
2022-10-19T16:25:06.353Z,16.23
2022-10-19T16:31:07.582Z,17.23
2022-10-19T16:43:20.828Z,11.55
2022-10-19T16:55:20.362Z,14.48
2022-10-19T17:00:58.324Z,16.80
2022-10-19T17:12:02.875Z,24.98
2022-10-19T17:17:10.791Z,19.13
2022-10-19T17:28:10.377Z,19.48
2022-10-19T17:44:21.653Z,9.35
2022-10-19T17:49:30.742Z,9.05
2022-10-19T17:54:48.877Z,10.30
2022-10-19T18:00:16.895Z,5.95
2022-10-19T18:05:40.633Z,9.33
2022-10-19T18:10:43.827Z,9.37
2022-10-19T18:16:33.490Z,10.93
2022-10-19T18:21:44.938Z,12.75
2022-10-19T18:26:51.722Z,12.50
2022-10-19T18:31:57.570Z,10.23
2022-10-19T18:37:25.887Z,7.63
2022-10-19T18:47:57.602Z,10.88
2022-10-19T18:53:10.032Z,6.75
2022-10-19T18:58:16.103Z,6.80
2022-10-19T19:03:23.086Z,9.65
2022-10-19T19:08:26.954Z,7.97
2022-10-19T19:13:46.509Z,23.88
2022-10-19T19:18:49.755Z,20.98
2022-10-19T19:23:55.845Z,21.13
2022-10-19T19:28:59.347Z,10.82
2022-10-19T19:34:07.405Z,11.63
2022-10-19T19:39:09.530Z,12.80
2022-10-19T19:44:26.026Z,9.07
2022-10-19T19:49:35.083Z,8.52
2022-10-19T19:54:41.378Z,7.22
2022-10-19T19:59:46.490Z,19.75
2022-10-19T20:04:54.170Z,12.27
2022-10-19T20:09:57.791Z,17.20
2022-10-19T20:15:01.735Z,6.38
2022-10-19T20:20:06.553Z,6.20
2022-10-19T20:25:16.654Z,11.07
2022-10-19T20:30:31.780Z,10.75
2022-10-19T20:35:38.171Z,5.32
2022-10-19T20:40:41.830Z,7.40
2022-10-19T20:45:45.345Z,10.43
2022-10-19T20:50:49.824Z,7.60
2022-10-19T20:56:12.100Z,6.95
2022-10-19T21:01:23.121Z,2.25
2022-10-19T21:06:27.905Z,22.35
2022-10-19T21:12:12.223Z,15.18
2022-10-19T21:17:14.746Z,7.63
2022-10-19T21:22:18.780Z,8.85
2022-10-19T21:27:23.841Z,13.30
2022-10-19T21:32:28.650Z,6.65
2022-10-19T21:37:33.711Z,7.65
2022-10-19T21:47:59.703Z,10.98
2022-10-19T21:53:04.896Z,7.95
2022-10-19T21:58:07.495Z,11.70
2022-10-19T22:03:22.660Z,6.97
2022-10-19T22:08:25.628Z,9.13
2022-10-19T22:13:39.986Z,7.47
2022-10-19T22:18:45.875Z,7.45
2022-10-19T22:23:58.049Z,9.60
2022-10-19T22:29:02.445Z,16.38
2022-10-19T22:34:22.959Z,7.30
2022-10-19T22:39:27.745Z,8.52
2022-10-19T22:44:32.262Z,6.05
2022-10-19T22:49:35.507Z,13.68
2022-10-19T22:54:41.193Z,5.32
2022-10-19T22:59:49.066Z,6.53
2022-10-19T23:04:51.196Z,7.88
2022-10-19T23:09:56.918Z,8.57
2022-10-19T23:15:06.185Z,6.70
2022-10-19T23:20:16.397Z,2.63
2022-10-19T23:25:43.747Z,4.68
2022-10-19T23:30:46.157Z,8.70
2022-10-19T23:36:13.152Z,9.10
2022-10-19T23:41:28.660Z,14.68
2022-10-19T23:46:35.811Z,7.82
2022-10-19T23:51:48.281Z,14.48
2022-10-19T23:57:08.773Z,8.48
